sensor_id;sensor_type;location;lat;lon;timestamp;P1;durP1;ratioP1;P2;durP2;ratioP2
16063;SDS011;8136;53.172;8.256;2023-10-09T01:07:30;3.80;;;2.23;;
16063;SDS011;8136;53.172;8.256;2023-10-09T01:10:50;4.67;;;2.30;;
16063;SDS011;8136;53.172;8.256;2023-10-09T01:13:21;10.50;;;3.00;;
16063;SDS011;8136;53.172;8.256;2023-10-09T01:19:19;4.73;;;2.50;;
16063;SDS011;8136;53.172;8.256;2023-10-09T01:28:40;4.77;;;2.20;;
16063;SDS011;8136;53.172;8.256;2023-10-09T01:31:46;4.50;;;2.70;;
16063;SDS011;8136;53.172;8.256;2023-10-09T01:34:23;4.03;;;2.40;;
16063;SDS011;8136;53.172;8.256;2023-10-09T01:37:07;2.93;;;2.50;;
16063;SDS011;8136;53.172;8.256;2023-10-09T01:39:56;3.53;;;2.33;;
16063;SDS011;8136;53.172;8.256;2023-10-09T01:46:00;4.53;;;2.80;;
16063;SDS011;8136;53.172;8.256;2023-10-09T01:49:07;4.07;;;2.50;;
16063;SDS011;8136;53.172;8.256;2023-10-09T01:51:42;5.73;;;2.40;;
16063;SDS011;8136;53.172;8.256;2023-10-09T01:54:10;7.47;;;3.00;;
16063;SDS011;8136;53.172;8.256;2023-10-09T01:56:52;5.40;;;2.57;;
16063;SDS011;8136;53.172;8.256;2023-10-09T01:59:22;5.43;;;2.67;;
16063;SDS011;8136;53.172;8.256;2023-10-09T02:01:51;5.93;;;2.60;;
16063;SDS011;8136;53.172;8.256;2023-10-09T02:04:23;3.47;;;2.40;;
16063;SDS011;8136;53.172;8.256;2023-10-09T02:07:08;5.57;;;2.93;;
16063;SDS011;8136;53.172;8.256;2023-10-09T02:09:57;7.40;;;2.73;;
16063;SDS011;8136;53.172;8.256;2023-10-09T02:12:39;8.20;;;2.40;;
16063;SDS011;8136;53.172;8.256;2023-10-09T02:15:33;4.00;;;2.90;;
16063;SDS011;8136;53.172;8.256;2023-10-09T02:49:08;3.80;;;2.67;;
16063;SDS011;8136;53.172;8.256;2023-10-09T02:52:03;2.77;;;2.37;;
16063;SDS011;8136;53.172;8.256;2023-10-09T02:54:39;4.82;;;3.03;;
16063;SDS011;8136;53.172;8.256;2023-10-09T02:57:14;5.60;;;2.57;;
16063;SDS011;8136;53.172;8.256;2023-10-09T03:03:22;4.23;;;2.77;;
16063;SDS011;8136;53.172;8.256;2023-10-09T03:27:21;5.97;;;3.57;;
16063;SDS011;8136;53.172;8.256;2023-10-09T03:29:54;7.50;;;3.73;;
16063;SDS011;8136;53.172;8.256;2023-10-09T03:49:54;9.63;;;5.00;;
16063;SDS011;8136;53.172;8.256;2023-10-09T03:52:36;12.00;;;5.17;;
16063;SDS011;8136;53.172;8.256;2023-10-09T03:59:37;7.30;;;4.80;;
16063;SDS011;8136;53.172;8.256;2023-10-09T04:03:10;9.13;;;4.87;;
16063;SDS011;8136;53.172;8.256;2023-10-09T04:10:05;12.30;;;6.03;;
16063;SDS011;8136;53.172;8.256;2023-10-09T04:13:19;11.00;;;5.90;;
16063;SDS011;8136;53.172;8.256;2023-10-09T04:16:09;12.27;;;6.80;;
16063;SDS011;8136;53.172;8.256;2023-10-09T04:18:51;11.80;;;6.10;;
16063;SDS011;8136;53.172;8.256;2023-10-09T04:28:31;10.00;;;6.47;;
16063;SDS011;8136;53.172;8.256;2023-10-09T04:31:44;10.90;;;6.07;;
16063;SDS011;8136;53.172;8.256;2023-10-09T04:34:45;14.00;;;7.23;;
16063;SDS011;8136;53.172;8.256;2023-10-09T04:37:35;12.43;;;7.60;;
16063;SDS011;8136;53.172;8.256;2023-10-09T04:51:02;18.57;;;8.10;;
16063;SDS011;8136;53.172;8.256;2023-10-09T04:54:08;22.33;;;10.43;;
16063;SDS011;8136;53.172;8.256;2023-10-09T04:56:59;15.30;;;8.77;;
16063;SDS011;8136;53.172;8.256;2023-10-09T05:00:06;14.70;;;8.83;;
16063;SDS011;8136;53.172;8.256;2023-10-09T05:30:18;21.90;;;12.60;;
16063;SDS011;8136;53.172;8.256;2023-10-09T05:35:57;24.10;;;13.17;;
16063;SDS011;8136;53.172;8.256;2023-10-09T05:38:42;27.57;;;14.03;;
16063;SDS011;8136;53.172;8.256;2023-10-09T05:41:11;22.73;;;13.53;;
16063;SDS011;8136;53.172;8.256;2023-10-09T05:43:57;27.07;;;15.77;;
16063;SDS011;8136;53.172;8.256;2023-10-09T05:46:41;29.67;;;14.77;;
16063;SDS011;8136;53.172;8.256;2023-10-09T05:49:34;27.00;;;15.73;;
16063;SDS011;8136;53.172;8.256;2023-10-09T05:52:11;24.70;;;14.97;;
16063;SDS011;8136;53.172;8.256;2023-10-09T05:54:52;30.73;;;16.80;;
16063;SDS011;8136;53.172;8.256;2023-10-09T05:57:35;31.63;;;17.33;;
16063;SDS011;8136;53.172;8.256;2023-10-09T06:00:29;30.13;;;16.83;;
16063;SDS011;8136;53.172;8.256;2023-10-09T06:03:14;26.57;;;15.37;;
16063;SDS011;8136;53.172;8.256;2023-10-09T06:05:50;30.93;;;16.77;;
16063;SDS011;8136;53.172;8.256;2023-10-09T06:08:27;32.97;;;16.63;;
16063;SDS011;8136;53.172;8.256;2023-10-09T06:11:25;30.90;;;16.53;;
16063;SDS011;8136;53.172;8.256;2023-10-09T06:14:08;30.30;;;15.70;;
16063;SDS011;8136;53.172;8.256;2023-10-09T06:16:52;28.73;;;16.17;;
16063;SDS011;8136;53.172;8.256;2023-10-09T06:19:48;31.43;;;17.03;;
16063;SDS011;8136;53.172;8.256;2023-10-09T06:22:14;31.67;;;17.07;;
16063;SDS011;8136;53.172;8.256;2023-10-09T06:25:01;32.17;;;16.93;;
16063;SDS011;8136;53.172;8.256;2023-10-09T06:27:37;34.60;;;17.93;;
16063;SDS011;8136;53.172;8.256;2023-10-09T06:30:23;30.50;;;16.47;;
16063;SDS011;8136;53.172;8.256;2023-10-09T06:32:53;33.43;;;17.33;;
16063;SDS011;8136;53.172;8.256;2023-10-09T06:35:44;29.63;;;17.17;;
16063;SDS011;8136;53.172;8.256;2023-10-09T06:38:18;30.93;;;17.30;;
16063;SDS011;8136;53.172;8.256;2023-10-09T06:40:48;32.47;;;17.03;;
16063;SDS011;8136;53.172;8.256;2023-10-09T06:43:33;32.87;;;17.63;;
16063;SDS011;8136;53.172;8.256;2023-10-09T06:46:13;34.97;;;18.37;;
16063;SDS011;8136;53.172;8.256;2023-10-09T06:49:15;33.00;;;16.67;;
16063;SDS011;8136;53.172;8.256;2023-10-09T06:51:55;31.90;;;17.37;;
16063;SDS011;8136;53.172;8.256;2023-10-09T06:54:23;33.77;;;18.13;;
16063;SDS011;8136;53.172;8.256;2023-10-09T06:56:54;31.77;;;17.47;;
16063;SDS011;8136;53.172;8.256;2023-10-09T06:59:39;30.67;;;18.00;;
16063;SDS011;8136;53.172;8.256;2023-10-09T07:02:08;35.40;;;17.40;;
16063;SDS011;8136;53.172;8.256;2023-10-09T07:04:52;33.73;;;18.87;;
16063;SDS011;8136;53.172;8.256;2023-10-09T07:07:21;33.57;;;18.77;;
16063;SDS011;8136;53.172;8.256;2023-10-09T07:09:49;31.30;;;19.10;;
16063;SDS011;8136;53.172;8.256;2023-10-09T07:12:37;37.80;;;18.70;;
16063;SDS011;8136;53.172;8.256;2023-10-09T07:15:22;38.70;;;19.03;;
16063;SDS011;8136;53.172;8.256;2023-10-09T07:18:07;32.10;;;18.13;;
16063;SDS011;8136;53.172;8.256;2023-10-09T07:20:49;35.80;;;19.93;;
16063;SDS011;8136;53.172;8.256;2023-10-09T07:23:26;36.57;;;19.70;;
16063;SDS011;8136;53.172;8.256;2023-10-09T07:26:04;37.97;;;19.03;;
16063;SDS011;8136;53.172;8.256;2023-10-09T07:28:48;35.67;;;18.63;;
16063;SDS011;8136;53.172;8.256;2023-10-09T07:31:18;34.63;;;18.87;;
16063;SDS011;8136;53.172;8.256;2023-10-09T07:34:04;36.17;;;19.70;;
16063;SDS011;8136;53.172;8.256;2023-10-09T07:36:55;35.07;;;20.77;;
16063;SDS011;8136;53.172;8.256;2023-10-09T07:39:21;37.40;;;19.70;;
16063;SDS011;8136;53.172;8.256;2023-10-09T07:41:52;39.80;;;19.60;;
16063;SDS011;8136;53.172;8.256;2023-10-09T07:44:40;33.43;;;18.80;;
16063;SDS011;8136;53.172;8.256;2023-10-09T07:47:17;37.60;;;18.97;;
16063;SDS011;8136;53.172;8.256;2023-10-09T07:49:48;35.80;;;19.23;;
16063;SDS011;8136;53.172;8.256;2023-10-09T07:52:20;36.20;;;19.07;;
16063;SDS011;8136;53.172;8.256;2023-10-09T07:54:50;38.20;;;19.20;;
16063;SDS011;8136;53.172;8.256;2023-10-09T07:57:26;37.20;;;19.37;;
16063;SDS011;8136;53.172;8.256;2023-10-09T07:59:54;35.10;;;19.10;;
16063;SDS011;8136;53.172;8.256;2023-10-09T08:02:26;34.60;;;19.63;;
16063;SDS011;8136;53.172;8.256;2023-10-09T08:04:57;34.13;;;18.20;;
16063;SDS011;8136;53.172;8.256;2023-10-09T08:07:30;33.20;;;19.30;;
16063;SDS011;8136;53.172;8.256;2023-10-09T08:10:19;40.73;;;18.60;;
16063;SDS011;8136;53.172;8.256;2023-10-09T08:13:03;31.10;;;18.33;;
16063;SDS011;8136;53.172;8.256;2023-10-09T08:15:44;37.77;;;19.93;;
16063;SDS011;8136;53.172;8.256;2023-10-09T08:18:17;37.23;;;18.70;;
16063;SDS011;8136;53.172;8.256;2023-10-09T08:20:53;28.90;;;17.20;;
16063;SDS011;8136;53.172;8.256;2023-10-09T08:27:02;30.30;;;17.33;;
16063;SDS011;8136;53.172;8.256;2023-10-09T08:29:46;33.77;;;17.37;;
16063;SDS011;8136;53.172;8.256;2023-10-09T08:32:13;33.23;;;17.83;;
16063;SDS011;8136;53.172;8.256;2023-10-09T08:35:03;38.00;;;17.37;;
16063;SDS011;8136;53.172;8.256;2023-10-09T08:37:44;31.47;;;17.53;;
16063;SDS011;8136;53.172;8.256;2023-10-09T08:40:14;32.20;;;16.40;;
16063;SDS011;8136;53.172;8.256;2023-10-09T08:42:45;30.50;;;15.83;;
16063;SDS011;8136;53.172;8.256;2023-10-09T08:45:19;27.20;;;15.27;;
16063;SDS011;8136;53.172;8.256;2023-10-09T08:47:49;26.73;;;14.93;;
16063;SDS011;8136;53.172;8.256;2023-10-09T08:50:17;25.60;;;14.97;;
16063;SDS011;8136;53.172;8.256;2023-10-09T08:52:44;23.87;;;14.63;;
16063;SDS011;8136;53.172;8.256;2023-10-09T08:55:13;27.47;;;14.80;;
16063;SDS011;8136;53.172;8.256;2023-10-09T08:57:42;26.00;;;14.97;;
16063;SDS011;8136;53.172;8.256;2023-10-09T09:00:17;23.73;;;14.17;;
16063;SDS011;8136;53.172;8.256;2023-10-09T09:02:49;26.17;;;14.90;;
16063;SDS011;8136;53.172;8.256;2023-10-09T09:05:18;30.07;;;16.00;;
16063;SDS011;8136;53.172;8.256;2023-10-09T09:07:46;27.10;;;15.27;;
16063;SDS011;8136;53.172;8.256;2023-10-09T09:10:14;31.87;;;15.33;;
16063;SDS011;8136;53.172;8.256;2023-10-09T09:12:46;27.20;;;15.03;;
16063;SDS011;8136;53.172;8.256;2023-10-09T09:15:19;25.47;;;13.67;;
16063;SDS011;8136;53.172;8.256;2023-10-09T09:17:46;26.53;;;13.70;;
16063;SDS011;8136;53.172;8.256;2023-10-09T09:20:20;23.20;;;13.97;;
16063;SDS011;8136;53.172;8.256;2023-10-09T09:22:52;23.30;;;13.23;;
16063;SDS011;8136;53.172;8.256;2023-10-09T09:25:21;23.33;;;13.83;;
16063;SDS011;8136;53.172;8.256;2023-10-09T09:27:49;31.83;;;14.90;;
16063;SDS011;8136;53.172;8.256;2023-10-09T09:30:24;23.90;;;13.47;;
16063;SDS011;8136;53.172;8.256;2023-10-09T09:32:58;24.07;;;12.63;;
16063;SDS011;8136;53.172;8.256;2023-10-09T09:38:30;24.67;;;13.63;;
16063;SDS011;8136;53.172;8.256;2023-10-09T09:41:07;23.80;;;13.03;;
16063;SDS011;8136;53.172;8.256;2023-10-09T09:43:35;20.47;;;12.37;;
16063;SDS011;8136;53.172;8.256;2023-10-09T09:46:06;20.77;;;12.80;;
16063;SDS011;8136;53.172;8.256;2023-10-09T09:48:37;22.87;;;11.93;;
16063;SDS011;8136;53.172;8.256;2023-10-09T09:51:11;19.97;;;12.07;;
16063;SDS011;8136;53.172;8.256;2023-10-09T09:53:40;23.07;;;12.83;;
16063;SDS011;8136;53.172;8.256;2023-10-09T09:56:07;26.47;;;11.87;;
16063;SDS011;8136;53.172;8.256;2023-10-09T09:58:42;22.43;;;11.50;;
16063;SDS011;8136;53.172;8.256;2023-10-09T10:01:13;20.13;;;11.60;;
16063;SDS011;8136;53.172;8.256;2023-10-09T10:03:51;19.07;;;10.70;;
16063;SDS011;8136;53.172;8.256;2023-10-09T10:06:22;20.93;;;10.73;;
16063;SDS011;8136;53.172;8.256;2023-10-09T10:08:51;16.90;;;10.27;;
16063;SDS011;8136;53.172;8.256;2023-10-09T10:14:10;18.50;;;10.50;;
16063;SDS011;8136;53.172;8.256;2023-10-09T10:17:04;17.83;;;10.20;;
16063;SDS011;8136;53.172;8.256;2023-10-09T10:20:00;15.27;;;10.20;;
16063;SDS011;8136;53.172;8.256;2023-10-09T10:22:50;19.93;;;8.93;;
16063;SDS011;8136;53.172;8.256;2023-10-09T10:25:33;17.00;;;9.23;;
16063;SDS011;8136;53.172;8.256;2023-10-09T10:28:15;13.80;;;8.43;;
16063;SDS011;8136;53.172;8.256;2023-10-09T10:31:04;16.93;;;9.10;;
16063;SDS011;8136;53.172;8.256;2023-10-09T10:36:49;12.87;;;8.33;;
16063;SDS011;8136;53.172;8.256;2023-10-09T10:39:23;10.40;;;7.67;;
16063;SDS011;8136;53.172;8.256;2023-10-09T10:42:07;16.23;;;8.67;;
16063;SDS011;8136;53.172;8.256;2023-10-09T10:44:40;15.80;;;8.20;;
16063;SDS011;8136;53.172;8.256;2023-10-09T10:47:18;13.57;;;7.80;;
16063;SDS011;8136;53.172;8.256;2023-10-09T10:49:58;12.40;;;7.40;;
16063;SDS011;8136;53.172;8.256;2023-10-09T10:52:36;11.67;;;7.43;;
16063;SDS011;8136;53.172;8.256;2023-10-09T10:55:15;12.83;;;7.40;;
16063;SDS011;8136;53.172;8.256;2023-10-09T10:58:02;15.63;;;6.83;;
16063;SDS011;8136;53.172;8.256;2023-10-09T11:00:51;15.87;;;7.37;;
16063;SDS011;8136;53.172;8.256;2023-10-09T11:03:37;14.33;;;7.00;;
16063;SDS011;8136;53.172;8.256;2023-10-09T11:06:31;16.63;;;7.07;;
16063;SDS011;8136;53.172;8.256;2023-10-09T11:09:07;13.73;;;6.23;;
16063;SDS011;8136;53.172;8.256;2023-10-09T11:11:46;10.60;;;5.93;;
16063;SDS011;8136;53.172;8.256;2023-10-09T11:14:13;13.40;;;5.37;;
16063;SDS011;8136;53.172;8.256;2023-10-09T11:16:40;12.20;;;5.13;;
16063;SDS011;8136;53.172;8.256;2023-10-09T11:19:13;10.33;;;5.67;;
16063;SDS011;8136;53.172;8.256;2023-10-09T11:22:06;11.20;;;4.43;;
16063;SDS011;8136;53.172;8.256;2023-10-09T11:25:05;10.97;;;5.17;;
16063;SDS011;8136;53.172;8.256;2023-10-09T11:27:37;5.43;;;3.33;;
16063;SDS011;8136;53.172;8.256;2023-10-09T11:30:17;7.47;;;3.37;;
16063;SDS011;8136;53.172;8.256;2023-10-09T11:33:06;6.73;;;3.63;;
16063;SDS011;8136;53.172;8.256;2023-10-09T11:35:40;6.33;;;3.53;;
16063;SDS011;8136;53.172;8.256;2023-10-09T11:38:25;5.83;;;2.67;;
16063;SDS011;8136;53.172;8.256;2023-10-09T11:40:53;6.30;;;2.90;;
16063;SDS011;8136;53.172;8.256;2023-10-09T11:43:46;4.60;;;2.50;;
16063;SDS011;8136;53.172;8.256;2023-10-09T11:46:22;6.03;;;2.30;;
16063;SDS011;8136;53.172;8.256;2023-10-09T11:49:15;5.27;;;2.07;;
16063;SDS011;8136;53.172;8.256;2023-10-09T11:52:09;4.57;;;2.63;;
16063;SDS011;8136;53.172;8.256;2023-10-09T11:54:51;5.90;;;2.13;;
16063;SDS011;8136;53.172;8.256;2023-10-09T11:57:21;2.80;;;2.23;;
16063;SDS011;8136;53.172;8.256;2023-10-09T11:59:55;6.17;;;2.20;;
16063;SDS011;8136;53.172;8.256;2023-10-09T12:02:23;2.00;;;1.83;;
16063;SDS011;8136;53.172;8.256;2023-10-09T12:04:50;4.37;;;1.67;;
16063;SDS011;8136;53.172;8.256;2023-10-09T12:07:19;6.93;;;2.60;;
16063;SDS011;8136;53.172;8.256;2023-10-09T12:09:47;4.80;;;2.40;;
16063;SDS011;8136;53.172;8.256;2023-10-09T12:12:18;3.10;;;2.10;;
16063;SDS011;8136;53.172;8.256;2023-10-09T12:14:51;5.70;;;2.33;;
16063;SDS011;8136;53.172;8.256;2023-10-09T12:17:18;3.43;;;2.20;;
16063;SDS011;8136;53.172;8.256;2023-10-09T12:19:49;5.30;;;2.77;;
16063;SDS011;8136;53.172;8.256;2023-10-09T12:22:17;5.53;;;2.37;;
16063;SDS011;8136;53.172;8.256;2023-10-09T12:24:46;4.90;;;2.20;;
16063;SDS011;8136;53.172;8.256;2023-10-09T12:27:13;7.03;;;2.73;;
16063;SDS011;8136;53.172;8.256;2023-10-09T12:29:46;3.97;;;2.10;;
16063;SDS011;8136;53.172;8.256;2023-10-09T12:32:14;3.93;;;2.10;;
16063;SDS011;8136;53.172;8.256;2023-10-09T12:34:44;2.67;;;1.87;;
16063;SDS011;8136;53.172;8.256;2023-10-09T12:37:15;5.17;;;2.20;;
16063;SDS011;8136;53.172;8.256;2023-10-09T12:39:45;6.93;;;2.30;;
16063;SDS011;8136;53.172;8.256;2023-10-09T12:42:12;8.73;;;2.50;;
16063;SDS011;8136;53.172;8.256;2023-10-09T12:44:42;4.47;;;2.37;;
16063;SDS011;8136;53.172;8.256;2023-10-09T12:47:11;7.20;;;2.67;;
16063;SDS011;8136;53.172;8.256;2023-10-09T12:49:37;5.97;;;2.30;;
16063;SDS011;8136;53.172;8.256;2023-10-09T12:52:06;5.70;;;2.30;;
16063;SDS011;8136;53.172;8.256;2023-10-09T12:54:40;6.20;;;3.10;;
16063;SDS011;8136;53.172;8.256;2023-10-09T12:57:08;4.07;;;2.33;;
16063;SDS011;8136;53.172;8.256;2023-10-09T12:59:38;8.03;;;2.80;;
16063;SDS011;8136;53.172;8.256;2023-10-09T13:10:15;5.57;;;2.30;;
16063;SDS011;8136;53.172;8.256;2023-10-09T13:12:50;5.40;;;1.90;;
16063;SDS011;8136;53.172;8.256;2023-10-09T13:16:05;4.73;;;1.93;;
16063;SDS011;8136;53.172;8.256;2023-10-09T13:19:02;4.97;;;2.00;;
16063;SDS011;8136;53.172;8.256;2023-10-09T13:21:40;6.63;;;2.67;;
16063;SDS011;8136;53.172;8.256;2023-10-09T13:24:23;10.90;;;2.40;;
16063;SDS011;8136;53.172;8.256;2023-10-09T14:58:32;6.13;;;1.90;;
16063;SDS011;8136;53.172;8.256;2023-10-09T15:01:25;9.30;;;1.63;;
16063;SDS011;8136;53.172;8.256;2023-10-09T15:03:54;5.13;;;2.00;;
16063;SDS011;8136;53.172;8.256;2023-10-09T15:06:25;4.13;;;1.77;;
16063;SDS011;8136;53.172;8.256;2023-10-09T15:08:55;5.43;;;1.60;;
16063;SDS011;8136;53.172;8.256;2023-10-09T15:11:22;7.37;;;2.20;;
16063;SDS011;8136;53.172;8.256;2023-10-09T15:13:51;4.73;;;1.83;;
16063;SDS011;8136;53.172;8.256;2023-10-09T15:16:19;4.03;;;1.93;;
16063;SDS011;8136;53.172;8.256;2023-10-09T15:18:51;7.37;;;1.90;;
16063;SDS011;8136;53.172;8.256;2023-10-09T15:21:19;6.53;;;2.00;;
16063;SDS011;8136;53.172;8.256;2023-10-09T15:23:48;8.00;;;1.90;;
16063;SDS011;8136;53.172;8.256;2023-10-09T15:26:16;5.63;;;1.73;;
16063;SDS011;8136;53.172;8.256;2023-10-09T15:28:43;4.30;;;1.63;;
16063;SDS011;8136;53.172;8.256;2023-10-09T15:31:11;9.03;;;1.97;;
16063;SDS011;8136;53.172;8.256;2023-10-09T15:33:41;4.00;;;1.97;;
16063;SDS011;8136;53.172;8.256;2023-10-09T15:36:09;5.93;;;1.60;;
16063;SDS011;8136;53.172;8.256;2023-10-09T15:38:37;3.60;;;1.20;;
16063;SDS011;8136;53.172;8.256;2023-10-09T15:41:04;4.43;;;1.43;;
16063;SDS011;8136;53.172;8.256;2023-10-09T15:43:32;4.17;;;1.70;;
16063;SDS011;8136;53.172;8.256;2023-10-09T15:45:59;5.33;;;2.07;;
16063;SDS011;8136;53.172;8.256;2023-10-09T15:48:27;6.47;;;1.30;;
16063;SDS011;8136;53.172;8.256;2023-10-09T15:50:54;3.63;;;1.47;;
16063;SDS011;8136;53.172;8.256;2023-10-09T15:53:22;2.97;;;1.20;;
16063;SDS011;8136;53.172;8.256;2023-10-09T15:55:49;5.63;;;2.03;;
16063;SDS011;8136;53.172;8.256;2023-10-09T15:58:22;3.83;;;1.30;;
16063;SDS011;8136;53.172;8.256;2023-10-09T16:00:49;9.47;;;4.53;;
16063;SDS011;8136;53.172;8.256;2023-10-09T16:03:17;10.93;;;6.10;;
16063;SDS011;8136;53.172;8.256;2023-10-09T16:05:45;14.57;;;7.30;;
16063;SDS011;8136;53.172;8.256;2023-10-09T16:08:12;10.33;;;4.93;;
16063;SDS011;8136;53.172;8.256;2023-10-09T16:10:39;7.43;;;2.40;;
16063;SDS011;8136;53.172;8.256;2023-10-09T16:13:05;7.47;;;2.67;;
16063;SDS011;8136;53.172;8.256;2023-10-09T16:15:40;8.13;;;3.80;;
16063;SDS011;8136;53.172;8.256;2023-10-09T16:18:07;9.03;;;4.00;;
16063;SDS011;8136;53.172;8.256;2023-10-09T16:20:34;5.23;;;1.70;;
16063;SDS011;8136;53.172;8.256;2023-10-09T16:23:04;4.10;;;2.70;;
16063;SDS011;8136;53.172;8.256;2023-10-09T16:25:30;7.30;;;3.70;;
16063;SDS011;8136;53.172;8.256;2023-10-09T16:27:59;7.17;;;1.77;;
16063;SDS011;8136;53.172;8.256;2023-10-09T16:30:27;4.50;;;1.40;;
16063;SDS011;8136;53.172;8.256;2023-10-09T16:32:54;2.10;;;1.03;;
16063;SDS011;8136;53.172;8.256;2023-10-09T16:35:21;1.60;;;0.87;;
16063;SDS011;8136;53.172;8.256;2023-10-09T16:37:48;2.97;;;1.40;;
16063;SDS011;8136;53.172;8.256;2023-10-09T16:40:16;3.70;;;1.47;;
16063;SDS011;8136;53.172;8.256;2023-10-09T16:42:45;5.40;;;1.23;;
16063;SDS011;8136;53.172;8.256;2023-10-09T16:45:14;4.10;;;1.40;;
16063;SDS011;8136;53.172;8.256;2023-10-09T16:47:43;2.10;;;1.00;;
16063;SDS011;8136;53.172;8.256;2023-10-09T16:50:11;4.20;;;1.33;;
16063;SDS011;8136;53.172;8.256;2023-10-09T16:52:40;3.97;;;1.30;;
16063;SDS011;8136;53.172;8.256;2023-10-09T16:55:08;4.33;;;1.47;;
16063;SDS011;8136;53.172;8.256;2023-10-09T16:57:37;2.07;;;1.17;;
16063;SDS011;8136;53.172;8.256;2023-10-09T17:00:06;4.73;;;1.30;;
16063;SDS011;8136;53.172;8.256;2023-10-09T17:02:43;7.23;;;1.10;;
16063;SDS011;8136;53.172;8.256;2023-10-09T17:05:10;2.57;;;1.03;;
16063;SDS011;8136;53.172;8.256;2023-10-09T17:07:38;2.37;;;1.07;;
16063;SDS011;8136;53.172;8.256;2023-10-09T17:10:06;3.40;;;1.17;;
16063;SDS011;8136;53.172;8.256;2023-10-09T17:12:41;2.77;;;1.20;;
16063;SDS011;8136;53.172;8.256;2023-10-09T17:15:11;5.43;;;1.47;;
16063;SDS011;8136;53.172;8.256;2023-10-09T17:17:40;8.90;;;1.57;;
16063;SDS011;8136;53.172;8.256;2023-10-09T17:20:11;5.30;;;1.40;;
16063;SDS011;8136;53.172;8.256;2023-10-09T17:22:38;2.97;;;1.30;;
16063;SDS011;8136;53.172;8.256;2023-10-09T17:25:05;5.37;;;1.70;;
16063;SDS011;8136;53.172;8.256;2023-10-09T17:27:32;3.47;;;1.00;;
16063;SDS011;8136;53.172;8.256;2023-10-09T17:30:01;7.20;;;1.40;;
16063;SDS011;8136;53.172;8.256;2023-10-09T17:32:27;2.97;;;1.30;;
16063;SDS011;8136;53.172;8.256;2023-10-09T17:34:54;4.47;;;1.30;;
16063;SDS011;8136;53.172;8.256;2023-10-09T17:37:22;4.97;;;1.30;;
16063;SDS011;8136;53.172;8.256;2023-10-09T17:39:48;4.30;;;1.17;;
16063;SDS011;8136;53.172;8.256;2023-10-09T17:42:15;4.20;;;1.20;;
16063;SDS011;8136;53.172;8.256;2023-10-09T17:48:02;3.03;;;1.60;;
16063;SDS011;8136;53.172;8.256;2023-10-09T17:50:34;5.70;;;1.50;;
16063;SDS011;8136;53.172;8.256;2023-10-09T17:53:01;5.17;;;1.50;;
16063;SDS011;8136;53.172;8.256;2023-10-09T17:55:30;8.70;;;1.50;;
16063;SDS011;8136;53.172;8.256;2023-10-09T17:57:57;4.93;;;1.30;;
16063;SDS011;8136;53.172;8.256;2023-10-09T18:00:24;5.33;;;1.20;;
16063;SDS011;8136;53.172;8.256;2023-10-09T18:02:51;2.40;;;0.90;;
16063;SDS011;8136;53.172;8.256;2023-10-09T18:05:19;3.80;;;1.20;;
16063;SDS011;8136;53.172;8.256;2023-10-09T18:07:46;2.33;;;1.10;;
16063;SDS011;8136;53.172;8.256;2023-10-09T18:10:14;2.07;;;1.20;;
16063;SDS011;8136;53.172;8.256;2023-10-09T18:12:42;3.50;;;1.03;;
16063;SDS011;8136;53.172;8.256;2023-10-09T18:15:09;4.20;;;1.60;;
16063;SDS011;8136;53.172;8.256;2023-10-09T18:17:38;1.10;;;1.00;;
16063;SDS011;8136;53.172;8.256;2023-10-09T18:20:07;3.13;;;1.40;;
16063;SDS011;8136;53.172;8.256;2023-10-09T18:22:36;7.57;;;1.77;;
16063;SDS011;8136;53.172;8.256;2023-10-09T18:25:03;4.07;;;1.10;;
16063;SDS011;8136;53.172;8.256;2023-10-09T18:27:31;5.90;;;1.20;;
16063;SDS011;8136;53.172;8.256;2023-10-09T18:29:58;4.43;;;1.30;;
16063;SDS011;8136;53.172;8.256;2023-10-09T18:32:25;2.30;;;1.20;;
16063;SDS011;8136;53.172;8.256;2023-10-09T18:34:52;5.60;;;1.30;;
16063;SDS011;8136;53.172;8.256;2023-10-09T18:37:19;3.77;;;1.10;;
16063;SDS011;8136;53.172;8.256;2023-10-09T18:39:48;4.10;;;1.33;;
16063;SDS011;8136;53.172;8.256;2023-10-09T18:42:15;3.13;;;1.13;;
16063;SDS011;8136;53.172;8.256;2023-10-09T18:44:43;2.80;;;1.37;;
16063;SDS011;8136;53.172;8.256;2023-10-09T18:47:10;5.17;;;1.40;;
16063;SDS011;8136;53.172;8.256;2023-10-09T18:49:40;5.40;;;1.30;;
16063;SDS011;8136;53.172;8.256;2023-10-09T18:52:06;3.13;;;1.47;;
16063;SDS011;8136;53.172;8.256;2023-10-09T18:54:35;4.83;;;1.63;;
16063;SDS011;8136;53.172;8.256;2023-10-09T18:57:03;5.07;;;2.00;;
16063;SDS011;8136;53.172;8.256;2023-10-09T18:59:30;5.97;;;2.13;;
16063;SDS011;8136;53.172;8.256;2023-10-09T19:01:57;6.40;;;1.60;;
16063;SDS011;8136;53.172;8.256;2023-10-09T19:04:24;5.17;;;1.93;;
